Time;durP1;ratioP1;P1;durP2;ratioP2;P2;SDS_P1;SDS_P2;PMS_P1;PMS_P2;Temp;Humidity;BMP_temperature;BMP_pressure;BME280_temperature;BME280_humidity;BME280_pressure;Samples;Min_cycle;Max_cycle;Signal;HPM_P1;HPM_P2
2022/11/02 00:01:23;;;;;;;9.82;1.65;;;13.80;99.90;;;;;;5094244;28;20036;-84
2022/11/02 00:03:49;;;;;;;6.80;1.23;;;13.70;99.90;;;;;;5093931;28;20114;-85
2022/11/02 00:06:14;;;;;;;10.57;2.40;;;13.50;99.90;;;;;;5094076;28;20124;-85
2022/11/02 00:08:40;;;;;;;8.07;1.17;;;13.50;99.90;;;;;;5077128;28;20043;-84
2022/11/02 00:11:05;;;;;;;6.10;1.40;;;13.40;99.90;;;;;;5094073;28;20077;-85
2022/11/02 00:13:31;;;;;;;8.90;1.67;;;13.30;99.90;;;;;;5093648;28;20040;-85
2022/11/02 00:16:09;;;;;;;6.15;1.65;;;13.20;99.90;;;;;;5077078;28;20084;-85
2022/11/02 00:18:35;;;;;;;4.97;1.13;;;13.20;99.90;;;;;;5076840;28;20504;-85
2022/11/02 00:21:02;;;;;;;4.28;1.05;;;13.20;99.90;;;;;;5077035;28;20083;-85
2022/11/02 00:23:28;;;;;;;6.80;1.15;;;13.10;99.90;;;;;;5076381;28;20036;-85
2022/11/02 00:25:55;;;;;;;9.27;1.50;;;13.20;99.90;;;;;;5093813;28;20040;-85
2022/11/02 00:28:20;;;;;;;11.65;1.92;;;13.20;99.90;;;;;;5077058;28;20063;-85
2022/11/02 00:30:46;;;;;;;11.25;2.78;;;13.20;99.90;;;;;;5093516;28;20497;-85
2022/11/02 00:33:12;;;;;;;12.02;1.85;;;13.30;99.90;;;;;;5093151;28;20040;-85
2022/11/02 00:35:38;;;;;;;14.40;2.33;;;13.30;99.90;;;;;;5076700;28;20052;-85
2022/11/02 00:38:04;;;;;;;12.02;3.00;;;13.30;99.90;;;;;;5093594;28;20129;-85
2022/11/02 00:40:30;;;;;;;11.85;1.95;;;13.40;99.90;;;;;;5076453;28;20051;-85
2022/11/02 00:42:56;;;;;;;14.45;2.08;;;13.30;99.90;;;;;;5076439;28;20048;-85
2022/11/02 00:45:21;;;;;;;10.02;1.80;;;13.30;99.90;;;;;;5093335;28;20040;-85
2022/11/02 00:47:47;;;;;;;9.88;1.65;;;13.30;99.90;;;;;;5076374;28;20094;-84
2022/11/02 00:50:13;;;;;;;13.65;2.13;;;13.30;99.90;;;;;;5076492;28;20075;-85
2022/11/02 00:52:39;;;;;;;10.20;2.53;;;13.30;99.90;;;;;;5076030;28;20075;-85
2022/11/02 00:55:07;;;;;;;10.05;1.88;;;13.30;99.90;;;;;;5076383;28;20032;-85
2022/11/02 00:57:33;;;;;;;15.40;3.42;;;13.30;99.90;;;;;;5075586;28;20036;-85
2022/11/02 00:59:59;;;;;;;9.05;1.27;;;13.20;99.90;;;;;;5093052;28;20571;-85
2022/11/02 01:02:25;;;;;;;8.80;1.65;;;13.30;99.90;;;;;;5092688;28;20124;-85
2022/11/02 01:04:50;;;;;;;11.00;2.20;;;13.20;99.90;;;;;;5091749;28;20039;-84
2022/11/02 01:07:16;;;;;;;9.15;1.45;;;13.20;99.90;;;;;;5092968;28;20043;-85
2022/11/02 01:09:41;;;;;;;11.07;2.25;;;13.10;99.90;;;;;;5091485;28;20043;-85
2022/11/02 01:12:07;;;;;;;12.38;2.47;;;13.20;99.90;;;;;;5092477;28;20498;-85
2022/11/02 01:14:33;;;;;;;10.07;1.90;;;13.20;99.90;;;;;;5092525;28;20043;-85
2022/11/02 01:16:58;;;;;;;13.52;3.30;;;13.20;99.90;;;;;;5075850;28;20036;-85
2022/11/02 01:19:24;;;;;;;13.23;3.25;;;13.30;99.90;;;;;;5109966;28;20080;-85
2022/11/02 01:21:50;;;;;;;13.07;2.83;;;13.40;99.90;;;;;;5093027;28;20040;-85
2022/11/02 01:24:16;;;;;;;13.13;3.47;;;13.40;99.90;;;;;;5075674;28;20549;-85
2022/11/02 01:26:42;;;;;;;9.30;2.58;;;13.40;99.90;;;;;;5092849;28;20044;-85
2022/11/02 01:29:07;;;;;;;8.70;1.35;;;13.40;99.90;;;;;;5075786;28;20040;-85
2022/11/02 01:31:33;;;;;;;12.32;2.97;;;13.40;99.90;;;;;;5092233;28;20127;-85
2022/11/02 01:33:59;;;;;;;13.95;3.63;;;13.40;99.90;;;;;;5092230;28;20044;-85
2022/11/02 01:36:25;;;;;;;8.45;1.42;;;13.50;99.90;;;;;;5109406;28;20412;-85
2022/11/02 01:38:51;;;;;;;6.30;1.88;;;13.50;99.90;;;;;;5075560;28;20487;-85
2022/11/02 01:41:17;;;;;;;7.47;1.35;;;13.40;99.90;;;;;;5092143;28;20032;-85
2022/11/02 01:43:44;;;;;;;7.40;1.83;;;13.40;99.90;;;;;;5075335;28;20047;-85
2022/11/02 01:46:17;;;;;;;7.75;1.45;;;13.40;99.90;;;;;;5092344;28;20047;-85
2022/11/02 01:48:47;;;;;;;7.35;1.67;;;13.40;99.90;;;;;;5092270;28;20040;-85
2022/11/02 01:51:42;;;;;;;9.65;1.60;;;13.40;99.90;;;;;;5092229;28;20061;-85
2022/11/02 01:54:14;;;;;;;14.50;3.03;;;13.40;99.90;;;;;;5091766;28;20047;-85
2022/11/02 01:56:41;;;;;;;8.70;2.17;;;13.40;99.90;;;;;;5092016;28;20126;-85
2022/11/02 01:59:13;;;;;;;12.30;1.88;;;13.40;99.90;;;;;;5075078;28;20043;-85
2022/11/02 02:01:39;;;;;;;14.93;3.08;;;13.40;99.90;;;;;;5075356;28;20040;-85
2022/11/02 02:04:05;;;;;;;11.95;3.05;;;13.40;99.90;;;;;;5091632;28;20046;-85
2022/11/02 02:06:31;;;;;;;8.65;1.73;;;13.50;99.90;;;;;;5091914;28;20405;-85
2022/11/02 02:09:01;;;;;;;10.63;1.60;;;13.40;99.90;;;;;;5091619;28;20036;-85
2022/11/02 02:11:35;;;;;;;6.78;1.58;;;13.40;99.90;;;;;;5091613;28;20040;-85
2022/11/02 02:14:12;;;;;;;9.10;1.77;;;13.40;99.90;;;;;;5124409;27;20117;-85
2022/11/02 02:17:05;;;;;;;5.80;1.45;;;13.30;99.90;;;;;;5073808;28;20036;-86
2022/11/02 02:19:57;;;;;;;10.63;1.98;;;13.30;99.90;;;;;;5091479;28;20043;-85
2022/11/02 02:22:44;;;;;;;10.43;1.60;;;13.30;99.90;;;;;;5091321;28;20129;-86
2022/11/02 02:25:29;;;;;;;7.22;1.48;;;13.40;99.90;;;;;;5091471;28;20044;-85
2022/11/02 02:28:27;;;;;;;7.32;1.88;;;13.40;99.90;;;;;;5074746;28;20463;-85
2022/11/02 02:31:01;;;;;;;9.55;1.65;;;13.40;99.90;;;;;;5091548;28;20086;-85
2022/11/02 02:33:42;;;;;;;10.27;1.70;;;13.50;99.90;;;;;;5091000;28;20489;-85
2022/11/02 02:36:21;;;;;;;13.35;2.92;;;13.50;99.90;;;;;;5090670;28;20497;-85
2022/11/02 02:39:14;;;;;;;6.90;1.67;;;13.50;99.90;;;;;;5091467;28;20043;-85
2022/11/02 02:41:46;;;;;;;7.53;1.30;;;13.40;99.90;;;;;;5074258;28;20036;-85
2022/11/02 02:44:18;;;;;;;8.27;1.20;;;13.30;99.90;;;;;;5090889;28;20108;-85
2022/11/02 02:46:50;;;;;;;8.07;2.15;;;13.30;99.90;;;;;;5074111;28;20040;-85
2022/11/02 02:49:23;;;;;;;7.80;1.48;;;13.20;99.90;;;;;;5073729;28;20055;-85
2022/11/02 02:51:50;;;;;;;9.15;1.92;;;13.20;99.90;;;;;;5090344;28;20563;-85
2022/11/02 02:54:23;;;;;;;5.38;1.35;;;13.20;99.90;;;;;;5089429;28;20046;-85
2022/11/02 02:56:59;;;;;;;6.25;1.17;;;13.20;99.90;;;;;;5106866;28;20036;-83
2022/11/02 02:59:36;;;;;;;6.95;1.15;;;13.20;99.90;;;;;;5089942;28;20113;-84
2022/11/02 03:02:11;;;;;;;2.85;1.05;;;13.10;99.90;;;;;;5089345;28;20085;-84
2022/11/02 03:04:36;;;;;;;4.63;1.00;;;13.10;99.90;;;;;;5072794;28;20557;-84
2022/11/02 03:07:02;;;;;;;9.85;2.08;;;13.00;99.90;;;;;;5090534;28;20040;-84
2022/11/02 03:09:34;;;;;;;3.88;1.10;;;13.10;99.90;;;;;;5090249;28;20036;-85
2022/11/02 03:12:32;;;;;;;4.57;0.87;;;13.00;99.90;;;;;;5073051;28;20731;-84
2022/11/02 03:15:18;;;;;;;6.10;1.00;;;12.90;99.90;;;;;;5073147;28;20493;-84
2022/11/02 03:18:03;;;;;;;8.80;1.67;;;12.80;99.90;;;;;;5090325;28;20075;-84
2022/11/02 03:20:35;;;;;;;6.45;1.08;;;12.80;99.90;;;;;;5090067;28;20489;-84
2022/11/02 03:23:22;;;;;;;4.57;1.05;;;12.60;99.90;;;;;;5090085;28;20050;-84
2022/11/02 03:26:03;;;;;;;4.25;0.75;;;12.50;99.90;;;;;;5107606;28;20073;-84
2022/11/02 03:28:48;;;;;;;2.38;0.45;;;12.40;99.90;;;;;;5090686;28;20044;-84
2022/11/02 03:31:30;;;;;;;5.78;0.68;;;12.40;99.90;;;;;;5089980;28;20040;-84
2022/11/02 03:34:43;;;;;;;1.70;0.55;;;12.40;99.90;;;;;;5107190;28;20040;-84
2022/11/02 03:37:18;;;;;;;4.47;0.70;;;12.30;99.90;;;;;;5111305;27;20551;-84
2022/11/02 03:40:05;;;;;;;5.57;1.05;;;12.20;99.90;;;;;;5107871;28;20044;-84
2022/11/02 03:42:33;;;;;;;4.50;1.00;;;12.20;99.90;;;;;;5072607;28;20043;-84
2022/11/02 03:45:06;;;;;;;12.75;1.33;;;12.10;99.90;;;;;;5089927;28;20500;-84
2022/11/02 03:47:34;;;;;;;5.38;1.48;;;12.10;99.90;;;;;;5073179;28;20028;-84
2022/11/02 03:50:01;;;;;;;3.50;0.57;;;12.10;99.90;;;;;;5090479;28;20081;-84
2022/11/02 03:52:30;;;;;;;6.50;0.95;;;12.10;99.90;;;;;;5072998;28;20427;-84
2022/11/02 03:55:24;;;;;;;4.70;0.77;;;12.10;99.90;;;;;;5090155;28;20431;-84
2022/11/02 03:57:51;;;;;;;4.00;0.85;;;12.00;99.90;;;;;;5090645;28;20044;-84
2022/11/02 04:00:25;;;;;;;7.25;1.00;;;12.00;99.90;;;;;;5089778;28;20075;-84
2022/11/02 04:02:54;;;;;;;3.78;0.90;;;12.00;99.90;;;;;;5089931;28;20055;-84
2022/11/02 04:05:25;;;;;;;5.70;1.33;;;12.00;99.90;;;;;;5073268;28;20051;-84
2022/11/02 04:14:36;;;;;;;4.20;1.08;;;12.00;99.90;;;;;;5089827;28;20052;-84
2022/11/02 04:16:06;;;;;;;8.63;1.58;;;12.00;99.90;;;;;;5089791;28;20041;-84
2022/11/02 04:21:16;;;;;;;4.13;0.88;;;12.00;99.90;;;;;;5089257;28;20044;-84
2022/11/02 04:26:26;;;;;;;7.70;1.50;;;11.90;99.90;;;;;;5089828;28;20048;-84
2022/11/02 04:28:52;;;;;;;5.03;0.93;;;12.00;99.90;;;;;;5089991;28;20071;-84
2022/11/02 04:31:17;;;;;;;4.85;0.98;;;11.90;99.90;;;;;;5073009;28;20078;-84
2022/11/02 04:33:43;;;;;;;9.60;1.20;;;11.90;99.90;;;;;;5075926;28;20049;-84
2022/11/02 04:36:08;;;;;;;4.32;1.13;;;11.90;99.90;;;;;;5093641;28;20043;-84
2022/11/02 04:38:40;;;;;;;4.20;1.10;;;11.90;99.90;;;;;;5093286;28;20036;-84
2022/11/02 04:43:55;;;;;;;2.92;0.65;;;12.00;99.90;;;;;;5093012;28;20052;-84
2022/11/02 04:46:22;;;;;;;5.22;0.80;;;12.00;99.90;;;;;;5076499;28;20036;-84
2022/11/02 04:48:48;;;;;;;5.68;1.23;;;12.00;99.90;;;;;;5093369;28;20040;-84
2022/11/02 04:51:14;;;;;;;4.43;1.00;;;12.10;99.90;;;;;;5076513;28;20040;-84
2022/11/02 04:53:40;;;;;;;5.20;1.15;;;12.10;99.90;;;;;;5092666;28;20040;-84
2022/11/02 04:56:06;;;;;;;5.35;0.90;;;12.00;99.90;;;;;;5076428;28;20481;-84
2022/11/02 04:58:31;;;;;;;5.80;1.05;;;12.10;99.90;;;;;;5076379;28;20028;-84
2022/11/02 05:00:57;;;;;;;6.38;0.80;;;12.00;99.90;;;;;;5092792;28;20097;-84
2022/11/02 05:03:22;;;;;;;6.07;1.10;;;12.00;99.90;;;;;;5109567;28;20453;-84
2022/11/02 05:05:54;;;;;;;7.13;1.10;;;12.00;99.90;;;;;;5092834;28;20598;-84
2022/11/02 05:08:19;;;;;;;7.72;1.08;;;11.90;99.90;;;;;;5076189;28;20123;-84
2022/11/02 05:10:45;;;;;;;5.63;0.80;;;11.90;99.90;;;;;;5092146;28;20127;-84
2022/11/02 05:13:10;;;;;;;11.88;2.67;;;11.90;99.90;;;;;;5092351;28;20122;-84
2022/11/02 05:15:38;;;;;;;6.05;1.30;;;11.90;99.90;;;;;;5075987;28;20074;-84
2022/11/02 05:18:04;;;;;;;8.30;1.33;;;11.90;99.90;;;;;;5075961;28;20039;-84
2022/11/02 05:20:29;;;;;;;7.47;1.38;;;11.90;99.90;;;;;;5093063;28;20046;-84
2022/11/02 05:22:55;;;;;;;11.60;2.58;;;11.90;99.90;;;;;;5092164;28;20090;-84
2022/11/02 05:25:21;;;;;;;11.38;1.35;;;12.00;99.90;;;;;;5092942;28;20036;-84
2022/11/02 05:27:46;;;;;;;8.25;1.35;;;12.00;99.90;;;;;;5092780;28;20580;-84
2022/11/02 05:30:12;;;;;;;5.07;0.88;;;12.00;99.90;;;;;;5092302;28;20044;-84
2022/11/02 05:32:38;;;;;;;10.25;1.52;;;12.00;99.90;;;;;;5092140;28;20123;-84
2022/11/02 05:35:04;;;;;;;5.90;1.10;;;12.10;99.90;;;;;;5109468;28;20048;-84
2022/11/02 05:37:29;;;;;;;6.15;1.33;;;12.10;99.90;;;;;;5109271;28;20515;-84
2022/11/02 05:39:55;;;;;;;13.77;1.63;;;12.10;99.90;;;;;;5091950;28;20093;-84
2022/11/02 05:42:20;;;;;;;7.88;1.60;;;12.10;99.90;;;;;;5091898;28;20043;-84
2022/11/02 05:44:46;;;;;;;7.32;1.40;;;12.00;99.90;;;;;;5092154;28;20130;-84
2022/11/02 05:47:11;;;;;;;10.38;1.88;;;12.00;99.90;;;;;;5092340;28;20135;-84
2022/11/02 05:49:37;;;;;;;10.80;2.22;;;11.90;99.90;;;;;;5092359;28;20043;-84
2022/11/02 05:52:03;;;;;;;5.60;1.38;;;11.90;99.90;;;;;;5091874;28;20496;-84
2022/11/02 05:54:28;;;;;;;10.65;2.03;;;11.80;99.90;;;;;;5091645;28;20032;-84
2022/11/02 05:56:54;;;;;;;8.02;1.08;;;11.80;99.90;;;;;;5092088;28;20396;-84
2022/11/02 05:59:19;;;;;;;9.95;1.63;;;11.80;99.90;;;;;;5092028;28;20093;-84
2022/11/02 06:01:45;;;;;;;8.32;1.63;;;11.80;99.90;;;;;;5109196;28;20040;-84
2022/11/02 06:04:10;;;;;;;9.23;1.83;;;11.80;99.90;;;;;;5108926;28;20046;-84
2022/11/02 06:06:36;;;;;;;8.48;1.85;;;11.80;99.90;;;;;;5091604;28;20481;-84
2022/11/02 06:09:01;;;;;;;6.15;1.35;;;11.80;99.90;;;;;;5091861;28;20043;-84
2022/11/02 06:11:27;;;;;;;6.40;1.13;;;11.80;99.90;;;;;;5090840;28;20038;-84
2022/11/02 06:13:52;;;;;;;4.22;0.80;;;11.80;99.90;;;;;;5074464;28;20479;-84
2022/11/02 06:16:18;;;;;;;7.43;1.00;;;11.90;99.90;;;;;;5091594;28;20556;-83
2022/11/02 06:18:44;;;;;;;5.78;1.65;;;11.90;99.90;;;;;;5075045;28;20034;-83
2022/11/02 06:21:10;;;;;;;8.98;1.25;;;11.90;99.90;;;;;;5074923;28;20253;-83
2022/11/02 06:23:37;;;;;;;10.00;2.47;;;11.90;99.90;;;;;;5091361;28;20118;-83
2022/11/02 06:26:03;;;;;;;8.70;1.25;;;11.80;99.90;;;;;;5091125;28;20044;-83
2022/11/02 06:28:29;;;;;;;9.82;1.25;;;11.80;99.90;;;;;;5074455;28;20036;-83
2022/11/02 06:30:55;;;;;;;9.82;1.58;;;11.80;99.90;;;;;;5091315;28;20066;-83
2022/11/02 06:33:21;;;;;;;6.65;1.35;;;11.80;99.90;;;;;;5074161;28;20489;-83
2022/11/02 06:35:49;;;;;;;8.02;1.45;;;11.80;99.90;;;;;;5091525;28;20032;-83
2022/11/02 06:38:15;;;;;;;9.98;2.00;;;11.70;99.90;;;;;;5074370;28;20031;-83
2022/11/02 06:40:41;;;;;;;10.52;2.00;;;11.70;99.90;;;;;;5091001;28;20575;-83
2022/11/02 06:43:07;;;;;;;7.65;2.08;;;11.60;99.90;;;;;;5090835;28;20120;-83
2022/11/02 06:45:32;;;;;;;9.82;1.77;;;11.60;99.90;;;;;;5090744;28;20043;-83
2022/11/02 06:47:58;;;;;;;12.85;2.05;;;11.60;99.90;;;;;;5091130;28;20042;-83
2022/11/02 06:50:23;;;;;;;10.07;2.53;;;11.60;99.90;;;;;;5090354;28;20044;-83
2022/11/02 06:52:50;;;;;;;15.25;2.30;;;11.50;99.90;;;;;;5073779;28;20075;-83
2022/11/02 06:55:16;;;;;;;9.80;2.22;;;11.50;99.90;;;;;;5089610;28;20089;-83
2022/11/02 06:57:43;;;;;;;13.00;1.77;;;11.50;99.90;;;;;;5091280;28;20043;-83
2022/11/02 07:00:11;;;;;;;8.20;1.52;;;11.50;99.90;;;;;;5124933;27;20028;-83
2022/11/02 07:02:38;;;;;;;8.68;1.58;;;11.50;99.90;;;;;;5073037;28;20032;-83
2022/11/02 07:05:04;;;;;;;10.25;1.63;;;11.50;99.90;;;;;;5073746;28;20036;-83
2022/11/02 07:07:30;;;;;;;7.13;1.55;;;11.50;99.90;;;;;;5089813;28;20127;-83
2022/11/02 07:09:55;;;;;;;9.32;1.60;;;11.50;99.90;;;;;;5073408;28;20039;-83
2022/11/02 07:12:21;;;;;;;8.80;1.55;;;11.50;99.90;;;;;;5089482;28;20549;-83
2022/11/02 07:14:47;;;;;;;11.00;1.67;;;11.50;99.90;;;;;;5090001;28;20074;-83
2022/11/02 07:17:13;;;;;;;8.35;1.55;;;11.50;99.90;;;;;;5090555;28;20565;-83
2022/11/02 07:19:38;;;;;;;8.00;1.27;;;11.50;99.90;;;;;;5090833;28;20036;-83
2022/11/02 07:22:04;;;;;;;6.03;1.10;;;11.50;99.90;;;;;;5090928;28;20505;-83
2022/11/02 07:24:30;;;;;;;10.13;1.95;;;11.50;99.90;;;;;;5089901;28;20497;-83
2022/11/02 07:26:55;;;;;;;6.80;1.33;;;11.60;99.90;;;;;;5090097;28;20043;-83
2022/11/02 07:29:21;;;;;;;8.15;1.80;;;11.60;99.90;;;;;;5089811;28;20562;-82
2022/11/02 07:31:47;;;;;;;8.75;1.35;;;11.70;99.90;;;;;;5089106;28;20056;-83
2022/11/02 07:34:13;;;;;;;7.90;1.40;;;11.70;99.90;;;;;;5086102;28;20032;-83
2022/11/02 07:36:39;;;;;;;6.65;1.33;;;11.80;99.90;;;;;;5090763;28;20055;-83
2022/11/02 07:39:05;;;;;;;8.32;1.70;;;11.80;99.90;;;;;;5090553;28;20409;-83
2022/11/02 07:41:31;;;;;;;6.53;1.50;;;11.90;99.90;;;;;;5090322;28;20051;-83
2022/11/02 07:43:57;;;;;;;7.57;1.63;;;11.90;99.90;;;;;;5090407;28;20516;-83
2022/11/02 07:46:23;;;;;;;8.13;1.50;;;11.90;99.90;;;;;;5090210;28;20078;-83
2022/11/02 07:48:48;;;;;;;8.25;1.50;;;12.00;99.90;;;;;;5090366;28;20043;-83
2022/11/02 07:51:14;;;;;;;11.98;2.05;;;12.10;99.90;;;;;;5090291;28;20059;-83
2022/11/02 07:53:39;;;;;;;11.60;1.80;;;12.10;99.90;;;;;;5072979;28;20089;-83
2022/11/02 07:56:05;;;;;;;11.43;2.40;;;12.10;99.90;;;;;;5090520;28;20028;-83
2022/11/02 07:58:32;;;;;;;12.43;2.42;;;12.10;99.90;;;;;;5089882;28;20127;-83
2022/11/02 08:00:58;;;;;;;6.68;1.50;;;12.20;99.90;;;;;;5090291;28;20036;-83
2022/11/02 08:03:25;;;;;;;5.78;0.98;;;12.20;99.90;;;;;;5070019;28;20051;-83
2022/11/02 08:05:51;;;;;;;4.47;0.90;;;12.20;99.90;;;;;;5074019;28;20105;-84
2022/11/02 08:08:23;;;;;;;8.90;1.65;;;12.10;99.90;;;;;;5077108;28;20485;-83
2022/11/02 08:10:50;;;;;;;6.18;1.38;;;12.20;99.90;;;;;;5076657;28;20032;-83
2022/11/02 08:13:22;;;;;;;7.22;1.25;;;12.20;99.90;;;;;;5093178;28;20127;-83
2022/11/02 08:15:52;;;;;;;13.20;1.70;;;12.20;99.90;;;;;;5093422;28;20040;-83
2022/11/02 08:18:19;;;;;;;7.93;1.80;;;12.20;99.90;;;;;;5076802;28;20397;-83
2022/11/02 08:20:46;;;;;;;7.93;2.22;;;12.20;99.90;;;;;;5093766;28;21030;-83
2022/11/02 08:23:13;;;;;;;7.35;1.05;;;12.20;99.90;;;;;;5076172;28;20040;-83
2022/11/02 08:25:39;;;;;;;6.55;1.05;;;12.30;99.90;;;;;;5093334;28;20051;-83
2022/11/02 08:28:07;;;;;;;12.48;2.03;;;12.20;99.90;;;;;;5093354;28;20043;-83
2022/11/02 08:30:33;;;;;;;8.63;1.80;;;12.20;99.90;;;;;;5093313;28;20047;-83
2022/11/02 08:33:04;;;;;;;6.03;1.20;;;12.20;99.90;;;;;;5075969;28;20032;-83
2022/11/02 08:35:29;;;;;;;5.00;1.23;;;12.20;99.90;;;;;;5093595;28;20389;-83
2022/11/02 08:37:56;;;;;;;13.13;1.40;;;12.20;99.90;;;;;;5093066;28;20492;-83
2022/11/02 08:40:21;;;;;;;3.83;0.88;;;12.20;99.90;;;;;;5092722;28;20047;-83
2022/11/02 08:42:47;;;;;;;7.93;1.45;;;12.20;99.90;;;;;;5092537;28;20032;-83
2022/11/02 08:45:13;;;;;;;8.05;1.35;;;12.20;99.90;;;;;;5093156;28;20576;-83
2022/11/02 08:47:42;;;;;;;7.55;1.30;;;12.20;99.90;;;;;;5092902;28;20406;-83
2022/11/02 08:50:08;;;;;;;5.50;1.15;;;12.20;99.90;;;;;;5092439;28;20374;-83
2022/11/02 08:52:38;;;;;;;8.13;1.60;;;12.20;99.90;;;;;;5075770;28;20507;-83
2022/11/02 08:55:04;;;;;;;7.90;1.58;;;12.30;99.90;;;;;;5092853;28;20039;-83
2022/11/02 08:57:30;;;;;;;6.20;1.40;;;12.30;99.90;;;;;;5076080;28;20508;-83
2022/11/02 08:59:55;;;;;;;13.02;3.05;;;12.40;99.90;;;;;;5091781;28;20050;-83
2022/11/02 09:02:21;;;;;;;8.20;1.30;;;12.50;99.90;;;;;;5075804;28;20127;-83
2022/11/02 09:04:46;;;;;;;6.28;1.17;;;12.50;99.90;;;;;;5092667;28;20411;-83
2022/11/02 09:07:12;;;;;;;10.38;1.40;;;12.60;99.90;;;;;;5075667;28;20036;-83
2022/11/02 09:09:37;;;;;;;4.80;1.20;;;12.60;99.90;;;;;;5091940;28;20040;-83
2022/11/02 09:12:03;;;;;;;10.90;2.28;;;12.60;99.90;;;;;;5091014;28;20093;-83
2022/11/02 09:14:29;;;;;;;12.27;1.30;;;12.70;99.90;;;;;;5075186;28;20470;-83
2022/11/02 09:16:54;;;;;;;8.73;1.27;;;12.70;99.90;;;;;;5075373;28;20505;-83
2022/11/02 09:19:20;;;;;;;8.13;1.23;;;12.70;99.90;;;;;;5091342;28;20044;-83
2022/11/02 09:21:46;;;;;;;5.00;0.93;;;12.70;99.90;;;;;;5092339;28;20040;-83
2022/11/02 09:24:12;;;;;;;10.68;2.45;;;12.80;99.90;;;;;;5074855;28;20036;-83
2022/11/02 09:26:38;;;;;;;11.27;2.70;;;12.90;99.90;;;;;;5091831;28;20477;-83
2022/11/02 09:29:03;;;;;;;4.20;0.90;;;13.00;99.90;;;;;;5091540;28;20472;-83
2022/11/02 09:31:29;;;;;;;8.48;1.35;;;13.00;99.90;;;;;;5092198;28;20040;-83
2022/11/02 09:33:54;;;;;;;9.63;1.60;;;13.00;99.90;;;;;;5091523;28;20133;-83
2022/11/02 09:36:20;;;;;;;8.23;1.85;;;12.90;99.90;;;;;;5092178;28;20508;-83
2022/11/02 09:38:45;;;;;;;7.93;1.67;;;12.90;99.90;;;;;;5091321;28;20413;-83
2022/11/02 09:41:17;;;;;;;7.32;1.45;;;12.90;99.90;;;;;;5074347;28;20429;-83
2022/11/02 09:44:00;;;;;;;8.13;1.27;;;12.90;99.90;;;;;;5091561;28;20051;-83
2022/11/02 09:46:30;;;;;;;6.88;1.08;;;12.90;99.90;;;;;;5074742;28;20051;-83
2022/11/02 09:49:23;;;;;;;4.15;1.02;;;13.00;99.90;;;;;;5075184;28;20051;-83
2022/11/02 09:51:55;;;;;;;5.57;0.70;;;13.10;99.90;;;;;;5088248;28;20066;-83
2022/11/02 09:54:28;;;;;;;6.30;1.10;;;13.20;99.90;;;;;;5091098;28;20044;-83
2022/11/02 09:56:58;;;;;;;10.85;1.13;;;13.20;99.90;;;;;;5074553;28;20067;-83
2022/11/02 09:59:25;;;;;;;9.80;1.45;;;13.20;99.90;;;;;;5091770;28;20501;-83
2022/11/02 10:02:04;;;;;;;8.50;1.00;;;13.30;99.90;;;;;;5091743;28;20379;-83
2022/11/02 10:04:37;;;;;;;11.93;2.05;;;13.30;99.90;;;;;;5090997;28;20040;-83
2022/11/02 10:07:20;;;;;;;9.90;2.08;;;13.30;99.90;;;;;;5091584;28;20032;-84
2022/11/02 10:10:07;;;;;;;8.07;1.05;;;13.20;99.90;;;;;;5091418;28;20043;-83
2022/11/02 10:12:40;;;;;;;12.27;2.53;;;13.40;99.90;;;;;;5074245;28;20401;-84
2022/11/02 10:15:18;;;;;;;10.52;2.33;;;13.50;99.90;;;;;;5091205;28;20059;-83
2022/11/02 10:17:46;;;;;;;9.98;1.45;;;13.50;99.90;;;;;;5074083;28;20044;-84
2022/11/02 10:20:28;;;;;;;6.05;1.67;;;13.60;99.90;;;;;;5074094;28;20040;-83
2022/11/02 10:22:59;;;;;;;3.63;1.17;;;13.70;99.90;;;;;;5091050;28;20050;-83
2022/11/02 10:25:25;;;;;;;5.13;1.08;;;13.70;99.90;;;;;;5074681;28;20775;-83
2022/11/02 10:28:03;;;;;;;17.45;3.45;;;13.60;99.90;;;;;;5090845;28;20092;-83
2022/11/02 10:30:29;;;;;;;5.95;1.08;;;13.60;99.90;;;;;;5090068;28;20071;-84
2022/11/02 10:32:56;;;;;;;7.43;1.40;;;13.60;99.90;;;;;;5073574;28;20089;-83
2022/11/02 10:35:34;;;;;;;7.13;1.17;;;13.80;99.90;;;;;;5073930;28;20124;-83
2022/11/02 10:38:14;;;;;;;7.40;1.10;;;13.90;99.90;;;;;;5090131;28;20443;-83
2022/11/02 10:41:14;;;;;;;6.05;1.15;;;13.90;99.90;;;;;;5073974;28;20036;-84
2022/11/02 10:43:51;;;;;;;14.65;3.20;;;13.90;99.90;;;;;;5090018;28;20408;-83
2022/11/02 10:46:34;;;;;;;11.93;2.53;;;14.20;99.90;;;;;;5073589;28;20039;-84
2022/11/02 10:49:28;;;;;;;;;;;14.40;99.90;;;;;;5090650;28;20067;-83
2022/11/02 10:51:53;;;;;;;;;;;14.30;99.90;;;;;;5090734;28;19916;-83
2022/11/02 10:54:19;;;;;;;4.32;0.90;;;14.40;99.90;;;;;;5073035;28;19943;-83
2022/11/02 10:56:47;;;;;;;3.55;0.80;;;14.50;99.90;;;;;;5090741;28;20047;-83
2022/11/02 10:59:15;;;;;;;11.32;2.30;;;14.60;99.90;;;;;;5090238;28;20491;-83
2022/11/02 11:02:12;;;;;;;11.15;2.17;;;14.70;99.90;;;;;;5090160;28;20044;-83
2022/11/02 11:04:38;;;;;;;11.57;2.13;;;14.60;98.10;;;;;;5083010;28;20060;-83
2022/11/02 11:07:18;;;;;;;6.78;1.23;;;14.60;99.90;;;;;;5090159;28;20032;-84
2022/11/02 11:09:49;;;;;;;5.45;1.77;;;14.60;99.90;;;;;;5090257;28;20048;-83
2022/11/02 11:12:19;;;;;;;5.63;1.05;;;14.70;99.90;;;;;;5089829;28;20182;-83
2022/11/02 11:14:57;;;;;;;9.65;2.13;;;14.70;99.20;;;;;;5090029;28;20067;-83
2022/11/02 11:17:33;;;;;;;11.88;2.15;;;14.80;98.90;;;;;;5090116;28;20036;-83
2022/11/02 11:19:59;;;;;;;10.10;2.28;;;14.80;97.00;;;;;;5090003;28;20047;-83
2022/11/02 11:22:40;;;;;;;4.03;1.02;;;14.80;99.90;;;;;;5089845;28;20040;-83
2022/11/02 11:25:11;;;;;;;10.38;2.08;;;14.70;96.40;;;;;;5073202;28;20386;-83
2022/11/02 11:27:49;;;;;;;9.68;1.95;;;14.70;99.20;;;;;;5090103;28;20046;-83
2022/11/02 11:30:30;;;;;;;6.40;1.77;;;14.80;97.20;;;;;;5073240;28;20510;-84
2022/11/02 11:32:57;;;;;;;6.35;1.33;;;14.80;98.90;;;;;;5072703;28;20056;-83
2022/11/02 11:35:29;;;;;;;10.02;2.28;;;14.90;98.40;;;;;;5089874;28;20036;-83
2022/11/02 11:38:01;;;;;;;11.10;1.77;;;15.10;98.50;;;;;;5090015;28;20048;-83
2022/11/02 11:40:33;;;;;;;5.47;1.60;;;15.00;95.40;;;;;;5089853;28;20039;-83
2022/11/02 11:43:00;;;;;;;5.50;1.20;;;14.80;95.80;;;;;;5091660;28;20038;-83
2022/11/02 11:45:28;;;;;;;12.77;2.38;;;14.70;96.60;;;;;;5090518;28;20055;-83
2022/11/02 11:48:05;;;;;;;11.02;1.98;;;14.60;99.10;;;;;;5094116;28;20366;-83
2022/11/02 11:50:32;;;;;;;10.75;2.42;;;14.50;99.80;;;;;;5094241;28;20047;-83
2022/11/02 11:53:18;;;;;;;11.25;2.03;;;14.50;98.20;;;;;;5093276;28;20115;-83
2022/11/02 11:55:49;;;;;;;8.30;1.33;;;14.60;98.70;;;;;;5094041;28;20042;-83
2022/11/02 11:58:23;;;;;;;6.43;1.10;;;14.70;99.20;;;;;;5076918;28;20047;-83
2022/11/02 12:01:13;;;;;;;10.50;2.15;;;14.90;98.50;;;;;;5093744;28;20039;-83
2022/11/02 12:03:56;;;;;;;11.13;2.67;;;15.00;97.40;;;;;;5076533;28;20515;-83
2022/11/02 12:06:30;;;;;;;11.98;2.75;;;15.00;95.20;;;;;;5076790;28;20081;-83
2022/11/02 12:09:19;;;;;;;8.60;1.15;;;14.90;95.60;;;;;;5093837;28;20073;-83
2022/11/02 12:12:06;;;;;;;9.15;1.35;;;14.80;97.10;;;;;;5093461;28;20044;-83
2022/11/02 12:14:46;;;;;;;11.27;1.85;;;14.70;97.60;;;;;;5093808;28;20523;-84
2022/11/02 12:17:24;;;;;;;7.28;1.55;;;14.90;97.70;;;;;;5093438;28;20075;-84
2022/11/02 12:19:49;;;;;;;9.20;1.45;;;15.40;96.60;;;;;;5093867;28;20036;-84
2022/11/02 12:22:39;;;;;;;12.07;2.10;;;16.10;93.40;;;;;;5093389;28;20465;-84
2022/11/02 12:25:24;;;;;;;8.60;1.50;;;16.60;83.10;;;;;;5084534;28;20139;-84
2022/11/02 12:28:05;;;;;;;12.55;2.22;;;16.30;83.60;;;;;;5093043;28;20043;-84
2022/11/02 12:30:55;;;;;;;11.00;2.30;;;16.00;82.30;;;;;;5093368;28;20489;-84
2022/11/02 12:33:37;;;;;;;9.30;1.30;;;15.80;85.20;;;;;;5076113;28;20504;-84
2022/11/02 12:36:12;;;;;;;6.55;1.13;;;15.40;90.00;;;;;;5076684;28;20132;-83
2022/11/02 12:38:52;;;;;;;14.68;2.90;;;15.60;93.10;;;;;;5093385;28;20066;-84
2022/11/02 12:41:31;;;;;;;9.93;2.20;;;15.50;90.40;;;;;;5076317;28;20489;-84
2022/11/02 12:44:05;;;;;;;12.13;2.10;;;15.30;92.00;;;;;;5093100;28;20076;-83
2022/11/02 12:46:44;;;;;;;9.38;1.23;;;15.30;93.40;;;;;;5075890;28;20048;-83
2022/11/02 12:49:36;;;;;;;4.72;1.00;;;15.50;93.40;;;;;;5092603;28;20495;-83
2022/11/02 12:52:25;;;;;;;9.30;2.25;;;15.60;92.50;;;;;;5090721;28;20086;-84
2022/11/02 12:54:57;;;;;;;11.45;2.30;;;15.50;87.40;;;;;;5089258;28;20032;-83
2022/11/02 12:57:27;;;;;;;5.57;1.05;;;15.80;87.30;;;;;;5092146;28;20036;-83
2022/11/02 12:59:59;;;;;;;10.77;2.00;;;16.60;82.80;;;;;;5089594;28;20028;-83
2022/11/02 13:02:44;;;;;;;;;;;17.20;77.00;;;;;;5092260;28;20044;-83
2022/11/02 13:05:17;;;;;;;8.38;1.92;;;18.30;75.90;;;;;;5075091;28;19916;-84
2022/11/02 13:07:55;;;;;;;11.45;2.17;;;19.50;66.60;;;;;;5075177;28;20489;-84
2022/11/02 13:10:27;;;;;;;10.00;1.88;;;20.20;63.90;;;;;;5115112;27;20111;-84
2022/11/02 13:12:58;;;;;;;9.15;2.15;;;20.50;62.00;;;;;;5073335;28;20036;-84
2022/11/02 13:15:26;;;;;;;8.73;1.92;;;21.20;60.00;;;;;;5098288;28;20037;-84
2022/11/02 13:18:20;;;;;;;10.48;2.17;;;21.60;59.80;;;;;;5090324;28;20039;-84